Time;durP1;ratioP1;P1;durP2;ratioP2;P2;SDS_P1;SDS_P2;PMS_P1;PMS_P2;Temp;Humidity;BMP_temperature;BMP_pressure;BME280_temperature;BME280_humidity;BME280_pressure;Samples;Min_cycle;Max_cycle;Signal;HPM_P1;HPM_P2
2023/04/18 00:02:16;;;;;;;22.95;12.18;;;;;;;8.60;100.00;102245.13;4973850;28;20046;-76
2023/04/18 00:04:45;;;;;;;19.15;11.00;;;;;;;8.46;100.00;102239.44;4964691;28;20494;-78
2023/04/18 00:07:12;;;;;;;19.30;11.65;;;;;;;8.42;100.00;102245.97;4977258;28;20039;-78
2023/04/18 00:09:37;;;;;;;22.52;11.57;;;;;;;8.36;100.00;102244.44;4976063;28;20030;-77
2023/04/18 00:12:03;;;;;;;21.33;11.45;;;;;;;8.40;100.00;102246.06;4971932;28;20046;-78
2023/04/18 00:14:29;;;;;;;19.50;11.48;;;;;;;8.37;100.00;102248.91;4970422;28;20442;-78
2023/04/18 00:16:54;;;;;;;17.83;11.15;;;;;;;8.29;100.00;102232.03;4955654;28;20116;-78
2023/04/18 00:19:20;;;;;;;18.65;11.00;;;;;;;8.35;100.00;102236.31;4946068;28;20494;-77
2023/04/18 00:21:45;;;;;;;17.60;10.63;;;;;;;8.34;100.00;102242.72;4954371;28;20031;-77
2023/04/18 00:24:14;;;;;;;16.33;10.07;;;;;;;8.24;100.00;102245.88;4991174;28;20046;-77
2023/04/18 00:26:41;;;;;;;16.83;10.43;;;;;;;8.19;100.00;102247.94;4988610;28;20500;-77
2023/04/18 00:29:08;;;;;;;22.88;11.85;;;;;;;8.17;100.00;102233.50;4981449;28;20470;-78
2023/04/18 00:31:33;;;;;;;23.92;11.10;;;;;;;8.07;100.00;102233.03;4953007;28;20042;-77
2023/04/18 00:33:59;;;;;;;18.98;9.93;;;;;;;8.06;100.00;102236.72;4960067;28;20042;-77
2023/04/18 00:36:24;;;;;;;19.35;10.05;;;;;;;8.02;100.00;102232.38;4953936;29;20039;-77
2023/04/18 00:38:50;;;;;;;16.75;9.70;;;;;;;8.03;100.00;102244.16;4991889;28;20051;-77
2023/04/18 00:41:15;;;;;;;18.65;10.18;;;;;;;8.03;100.00;102239.56;4957812;28;20040;-76
2023/04/18 00:43:41;;;;;;;17.52;9.65;;;;;;;7.97;100.00;102239.88;4974284;28;20041;-78
2023/04/18 00:46:06;;;;;;;16.92;9.90;;;;;;;8.00;100.00;102244.28;4972634;28;20045;-77
2023/04/18 00:48:32;;;;;;;20.67;9.55;;;;;;;7.94;100.00;102239.16;4985209;28;20554;-78
2023/04/18 00:50:59;;;;;;;14.00;8.80;;;;;;;7.93;100.00;102245.53;4976824;28;20043;-76
2023/04/18 00:53:24;;;;;;;20.23;10.38;;;;;;;7.95;100.00;102241.78;4959609;28;20067;-76
2023/04/18 00:55:50;;;;;;;19.90;10.23;;;;;;;7.79;100.00;102233.44;4966673;28;20063;-78
2023/04/18 00:58:15;;;;;;;14.48;9.20;;;;;;;7.74;100.00;102235.47;4960132;28;20431;-76
2023/04/18 01:00:42;;;;;;;20.40;10.20;;;;;;;7.65;100.00;102231.31;4977674;28;20041;-78
2023/04/18 01:03:13;;;;;;;14.77;9.30;;;;;;;7.61;100.00;102245.13;4995863;28;20038;-78
2023/04/18 01:05:38;;;;;;;17.95;10.40;;;;;;;7.54;100.00;102239.97;4969652;28;20052;-78
2023/04/18 01:08:04;;;;;;;16.63;9.65;;;;;;;7.46;100.00;102235.78;4975990;28;20034;-78
2023/04/18 01:10:30;;;;;;;16.20;10.73;;;;;;;7.37;100.00;102228.91;5009190;28;20513;-78
2023/04/18 01:13:15;;;;;;;19.00;9.80;;;;;;;7.42;100.00;102235.03;4947189;28;20039;-78
2023/04/18 01:15:46;;;;;;;18.13;10.00;;;;;;;7.41;100.00;102232.38;4965842;28;20128;-78
2023/04/18 01:18:12;;;;;;;17.63;9.48;;;;;;;7.58;100.00;102228.94;4993477;28;20023;-78
2023/04/18 01:20:41;;;;;;;17.05;8.90;;;;;;;7.26;100.00;102215.75;4980761;28;20039;-79
2023/04/18 01:23:09;;;;;;;25.17;10.07;;;;;;;7.18;100.00;102229.72;4956904;28;20648;-78
2023/04/18 01:25:34;;;;;;;18.48;9.38;;;;;;;7.11;100.00;102220.00;4966154;28;20391;-78
2023/04/18 01:28:03;;;;;;;20.20;11.13;;;;;;;6.95;100.00;102206.19;4947317;28;20040;-78
2023/04/18 01:30:29;;;;;;;21.10;10.55;;;;;;;6.97;100.00;102214.28;4973745;28;20034;-79
2023/04/18 01:32:54;;;;;;;22.13;9.73;;;;;;;6.97;100.00;102215.16;4972145;28;20085;-79
2023/04/18 01:35:19;;;;;;;18.33;9.45;;;;;;;6.92;100.00;102202.69;4989636;28;20046;-78
2023/04/18 01:37:45;;;;;;;18.42;8.98;;;;;;;7.03;100.00;102216.72;4971749;28;20043;-79
2023/04/18 01:40:14;;;;;;;16.00;9.20;;;;;;;6.99;100.00;102204.22;4974353;28;20117;-78
2023/04/18 01:42:39;;;;;;;17.85;9.85;;;;;;;6.75;100.00;102185.22;4992878;28;20027;-79
2023/04/18 01:45:10;;;;;;;19.25;10.95;;;;;;;6.80;100.00;102204.09;4973717;28;20061;-78
2023/04/18 01:47:35;;;;;;;18.15;10.07;;;;;;;6.74;100.00;102207.06;4971416;28;20438;-79
2023/04/18 01:50:02;;;;;;;19.30;11.05;;;;;;;6.76;100.00;102203.34;4974514;28;20232;-79
2023/04/18 01:52:28;;;;;;;21.65;10.95;;;;;;;6.80;100.00;102207.72;4948340;28;20454;-79
2023/04/18 01:54:53;;;;;;;19.50;10.75;;;;;;;6.80;100.00;102202.28;4974581;28;20039;-79
2023/04/18 01:57:19;;;;;;;22.20;10.55;;;;;;;6.69;100.00;102204.56;4957200;28;20058;-79
2023/04/18 01:59:44;;;;;;;18.83;11.13;;;;;;;6.65;100.00;102200.16;4961552;28;20043;-79
2023/04/18 02:02:11;;;;;;;18.75;10.48;;;;;;;6.74;100.00;102199.78;4960468;28;20383;-79
2023/04/18 02:04:36;;;;;;;22.33;11.43;;;;;;;6.72;100.00;102198.06;4961011;28;20067;-79
2023/04/18 02:07:02;;;;;;;19.45;10.82;;;;;;;6.70;100.00;102202.69;4958573;28;20122;-78
2023/04/18 02:09:27;;;;;;;20.40;10.75;;;;;;;6.65;100.00;102200.16;4954288;28;20456;-79
2023/04/18 02:11:55;;;;;;;21.85;10.40;;;;;;;6.50;100.00;102182.63;4964066;28;20402;-79
2023/04/18 02:14:20;;;;;;;16.73;10.35;;;;;;;6.54;100.00;102192.47;4967041;28;20121;-79
2023/04/18 02:16:46;;;;;;;21.42;11.73;;;;;;;6.46;100.00;102188.25;4949670;28;20107;-79
2023/04/18 02:19:11;;;;;;;20.65;10.32;;;;;;;6.57;100.00;102192.31;4964050;28;20051;-79
2023/04/18 02:21:40;;;;;;;18.30;10.82;;;;;;;6.48;100.00;102189.06;4956871;28;20475;-78
2023/04/18 02:24:06;;;;;;;19.73;10.70;;;;;;;6.46;100.00;102196.41;4957587;28;20093;-79
2023/04/18 02:26:31;;;;;;;19.33;10.25;;;;;;;6.36;100.00;102188.66;4959398;28;20117;-78
2023/04/18 02:28:57;;;;;;;21.60;10.85;;;;;;;6.41;100.00;102188.44;4964040;28;20086;-79
2023/04/18 02:31:22;;;;;;;23.08;10.75;;;;;;;6.38;100.00;102183.16;4956820;28;20037;-79
2023/04/18 02:33:48;;;;;;;16.13;10.88;;;;;;;6.31;100.00;102182.47;4960160;28;20521;-79
2023/04/18 02:36:14;;;;;;;24.55;11.00;;;;;;;6.34;100.00;102190.50;4975551;28;20034;-78
2023/04/18 02:38:39;;;;;;;23.85;11.10;;;;;;;6.29;100.00;102191.66;4975242;28;20087;-78
2023/04/18 02:41:05;;;;;;;21.42;10.55;;;;;;;6.38;100.00;102191.31;4988509;28;20397;-78
2023/04/18 02:43:30;;;;;;;21.40;11.10;;;;;;;6.44;100.00;102191.03;4974296;28;20035;-78
2023/04/18 02:45:56;;;;;;;19.02;11.38;;;;;;;6.34;100.00;102193.22;4998208;28;20046;-78
2023/04/18 02:48:24;;;;;;;18.17;10.85;;;;;;;6.18;100.00;102179.38;4953940;28;20038;-78
2023/04/18 02:50:50;;;;;;;18.55;10.60;;;;;;;6.11;100.00;102182.38;5005554;28;20050;-78
2023/04/18 02:53:16;;;;;;;18.73;10.50;;;;;;;6.09;100.00;102187.00;4963896;28;20055;-78
2023/04/18 02:55:41;;;;;;;20.08;11.10;;;;;;;6.01;100.00;102181.84;4956403;28;20354;-78
2023/04/18 02:58:10;;;;;;;20.33;11.05;;;;;;;6.10;100.00;102194.19;4964138;28;20070;-79
2023/04/18 03:00:35;;;;;;;16.98;10.52;;;;;;;6.02;100.00;102184.53;4973955;28;20041;-78
2023/04/18 03:03:01;;;;;;;16.50;9.70;;;;;;;5.94;100.00;102175.75;4950353;28;20039;-78
2023/04/18 03:05:26;;;;;;;18.13;11.18;;;;;;;6.01;100.00;102179.13;5000928;28;20070;-77
2023/04/18 03:07:52;;;;;;;15.98;10.30;;;;;;;6.13;100.00;102183.22;4971200;28;20402;-78
2023/04/18 03:10:17;;;;;;;21.70;11.07;;;;;;;6.02;100.00;102176.38;4982721;28;20037;-78
2023/04/18 03:12:42;;;;;;;18.33;10.90;;;;;;;5.98;100.00;102181.97;4978692;28;20035;-78
2023/04/18 03:15:08;;;;;;;19.77;10.40;;;;;;;5.96;100.00;102195.63;4970704;28;20047;-79
2023/04/18 03:17:35;;;;;;;18.05;10.63;;;;;;;5.92;100.00;102185.78;4958493;28;20043;-79
2023/04/18 03:20:00;;;;;;;22.35;11.02;;;;;;;5.92;100.00;102187.59;4987055;28;20058;-79
2023/04/18 03:22:26;;;;;;;24.20;10.52;;;;;;;5.81;100.00;102188.03;4955578;28;20054;-78
2023/04/18 03:24:51;;;;;;;18.83;11.40;;;;;;;5.76;100.00;102187.31;4982878;28;20070;-78
2023/04/18 03:27:17;;;;;;;17.42;10.85;;;;;;;5.57;100.00;102166.25;4973674;28;20150;-79
2023/04/18 03:29:42;;;;;;;21.42;10.73;;;;;;;5.64;100.00;102178.69;4984859;28;20047;-79
2023/04/18 03:32:10;;;;;;;19.58;11.48;;;;;;;5.61;100.00;102178.78;4960000;28;20052;-79
2023/04/18 03:34:35;;;;;;;17.27;11.20;;;;;;;5.62;100.00;102179.66;4976231;28;20035;-79
2023/04/18 03:37:01;;;;;;;24.83;11.63;;;;;;;5.60;100.00;102187.88;4976283;28;20043;-79
2023/04/18 03:39:26;;;;;;;26.33;11.45;;;;;;;5.60;100.00;102196.03;4979798;28;20042;-80
2023/04/18 03:41:52;;;;;;;24.23;11.63;;;;;;;5.56;100.00;102191.66;4952290;28;20039;-79
2023/04/18 03:44:17;;;;;;;21.63;11.63;;;;;;;5.56;100.00;102185.31;4968012;28;20050;-78
2023/04/18 03:46:43;;;;;;;17.13;10.85;;;;;;;5.65;100.00;102199.44;4968588;28;20039;-78
2023/04/18 03:49:09;;;;;;;20.60;11.75;;;;;;;5.65;100.00;102198.56;4968817;28;20047;-79
2023/04/18 03:51:42;;;;;;;22.60;12.15;;;;;;;5.59;100.00;102179.78;4954358;28;20042;-79
2023/04/18 03:54:08;;;;;;;25.50;11.73;;;;;;;5.59;100.00;102191.56;4972539;28;20050;-78
2023/04/18 03:56:34;;;;;;;26.60;11.35;;;;;;;5.56;100.00;102186.22;4988181;28;20030;-79
2023/04/18 03:59:02;;;;;;;19.52;11.57;;;;;;;5.48;100.00;102188.34;4991160;28;20070;-79
2023/04/18 04:01:28;;;;;;;23.15;11.50;;;;;;;5.46;100.00;102187.47;4965575;28;20043;-79
2023/04/18 04:03:53;;;;;;;19.13;10.60;;;;;;;5.49;100.00;102191.00;4954123;28;20035;-79
2023/04/18 04:06:19;;;;;;;20.83;11.60;;;;;;;5.46;100.00;102196.53;4948927;28;20039;-80
2023/04/18 04:08:44;;;;;;;19.42;11.60;;;;;;;5.42;100.00;102191.25;4968317;28;20121;-79
2023/04/18 04:11:10;;;;;;;22.95;11.48;;;;;;;5.38;100.00;102201.34;4978053;28;20041;-78
2023/04/18 04:13:35;;;;;;;19.88;11.18;;;;;;;5.42;100.00;102205.72;4948458;28;20158;-79
2023/04/18 04:16:01;;;;;;;23.10;12.55;;;;;;;5.30;100.00;102198.03;4973673;28;20035;-80
2023/04/18 04:18:30;;;;;;;19.05;11.73;;;;;;;5.32;100.00;102204.28;4951432;28;20038;-80
2023/04/18 04:20:59;;;;;;;22.38;11.38;;;;;;;5.27;100.00;102193.56;4988822;28;20030;-78
2023/04/18 04:23:25;;;;;;;19.58;11.85;;;;;;;5.36;100.00;102194.19;4973478;28;20042;-79
2023/04/18 04:25:54;;;;;;;18.02;11.55;;;;;;;5.34;100.00;102205.09;4971421;28;20035;-81
2023/04/18 04:28:25;;;;;;;17.60;10.95;;;;;;;5.25;100.00;102200.91;4996510;28;20101;-79
2023/04/18 04:30:51;;;;;;;21.75;12.40;;;;;;;5.22;100.00;102206.44;4995798;28;20039;-81
2023/04/18 04:33:27;;;;;;;18.08;11.32;;;;;;;5.21;100.00;102195.63;4974356;28;20085;-81
2023/04/18 04:35:53;;;;;;;18.70;11.45;;;;;;;5.29;100.00;102209.81;4967286;28;20039;-78
2023/04/18 04:38:21;;;;;;;19.02;11.38;;;;;;;5.28;100.00;102213.47;4970134;28;20126;-79
2023/04/18 04:40:47;;;;;;;21.67;11.75;;;;;;;5.19;100.00;102209.25;4974555;28;20088;-78
2023/04/18 04:43:14;;;;;;;23.40;11.48;;;;;;;5.22;100.00;102203.72;4957991;28;20410;-78
2023/04/18 04:45:40;;;;;;;24.52;12.02;;;;;;;5.25;100.00;102202.72;4982274;28;20062;-79
2023/04/18 04:48:09;;;;;;;21.95;11.13;;;;;;;5.21;100.00;102218.22;4979255;28;20514;-77
2023/04/18 04:50:36;;;;;;;22.45;12.02;;;;;;;5.27;100.00;102212.59;4971712;28;20032;-78
2023/04/18 04:53:02;;;;;;;22.60;11.43;;;;;;;5.23;100.00;102204.59;4996280;28;20061;-83
2023/04/18 04:55:28;;;;;;;18.85;11.38;;;;;;;5.25;100.00;102203.63;4988908;28;20030;-79
2023/04/18 04:57:54;;;;;;;21.85;11.88;;;;;;;5.32;100.00;102207.88;4960761;28;20042;-79
2023/04/18 05:00:20;;;;;;;18.20;10.98;;;;;;;5.27;100.00;102209.88;4986277;28;20042;-79
2023/04/18 05:02:47;;;;;;;20.55;11.00;;;;;;;5.32;100.00;102216.03;4993340;28;20031;-79
2023/04/18 05:05:12;;;;;;;17.73;10.07;;;;;;;5.37;100.00;102221.28;4971330;28;20489;-81
2023/04/18 05:07:38;;;;;;;20.83;11.65;;;;;;;5.36;100.00;102221.34;4978231;28;20062;-79
2023/04/18 05:10:04;;;;;;;23.17;11.07;;;;;;;5.41;100.00;102219.34;4988704;28;20059;-79
2023/04/18 05:12:30;;;;;;;19.48;11.13;;;;;;;5.49;100.00;102220.88;4961116;28;20050;-79
2023/04/18 05:14:55;;;;;;;19.77;11.20;;;;;;;5.57;100.00;102223.28;4982241;28;20180;-79
2023/04/18 05:17:21;;;;;;;20.00;11.52;;;;;;;5.48;100.00;102226.38;4982280;28;20035;-79
2023/04/18 05:19:46;;;;;;;21.10;12.18;;;;;;;5.40;100.00;102218.47;5012375;28;20023;-79
2023/04/18 05:22:12;;;;;;;24.17;11.07;;;;;;;5.56;100.00;102221.53;4977372;28;20062;-78
2023/04/18 05:24:37;;;;;;;22.05;10.63;;;;;;;5.50;100.00;102233.50;4977364;28;20070;-79
2023/04/18 05:27:03;;;;;;;19.90;12.10;;;;;;;5.57;100.00;102228.72;4978085;28;20402;-79
2023/04/18 05:29:28;;;;;;;21.50;10.82;;;;;;;5.48;100.00;102210.94;4978725;28;20022;-77
2023/04/18 05:31:54;;;;;;;21.42;11.20;;;;;;;5.67;100.00;102213.88;4976829;28;20537;-78
2023/04/18 05:34:19;;;;;;;22.15;11.93;;;;;;;5.66;100.00;102225.69;4962994;28;20117;-78
2023/04/18 05:36:46;;;;;;;19.98;11.40;;;;;;;5.73;100.00;102245.38;4980991;28;20105;-77
2023/04/18 05:39:12;;;;;;;21.77;10.55;;;;;;;5.77;100.00;102219.88;4973829;28;20043;-77
2023/04/18 05:41:37;;;;;;;23.48;12.52;;;;;;;5.96;100.00;102238.22;4957836;28;20379;-77
2023/04/18 05:44:03;;;;;;;21.00;11.45;;;;;;;5.97;100.00;102240.91;4961236;28;20041;-78
2023/04/18 05:46:29;;;;;;;22.88;12.27;;;;;;;6.07;100.00;102246.88;4965582;28;20035;-77
2023/04/18 05:48:54;;;;;;;18.23;10.23;;;;;;;6.11;100.00;102229.50;4982723;28;20058;-77
2023/04/18 05:51:19;;;;;;;19.45;11.25;;;;;;;6.29;100.00;102252.38;4947183;29;20035;-78
2023/04/18 05:53:45;;;;;;;22.05;11.93;;;;;;;6.41;100.00;102246.47;4952659;28;20066;-79
2023/04/18 05:56:10;;;;;;;22.55;12.13;;;;;;;6.47;100.00;102249.91;4992179;28;20031;-78
2023/04/18 05:58:36;;;;;;;20.33;11.60;;;;;;;6.48;100.00;102255.28;4988204;28;20042;-77
2023/04/18 06:01:01;;;;;;;20.80;11.20;;;;;;;6.53;100.00;102250.53;4974747;28;20028;-78
2023/04/18 06:03:27;;;;;;;17.08;10.85;;;;;;;6.64;100.00;102252.84;5005929;28;20043;-77
2023/04/18 06:05:52;;;;;;;24.40;11.20;;;;;;;6.63;100.00;102245.63;4944186;29;20134;-77
2023/04/18 06:08:18;;;;;;;16.90;10.65;;;;;;;6.97;100.00;102257.84;4978955;28;20023;-77
2023/04/18 06:10:43;;;;;;;16.35;11.25;;;;;;;7.00;100.00;102263.16;4957142;29;20048;-77
2023/04/18 06:13:09;;;;;;;26.90;11.80;;;;;;;7.08;100.00;102261.00;4960906;28;20089;-78
2023/04/18 06:15:34;;;;;;;21.05;11.75;;;;;;;7.29;100.00;102266.50;4987780;28;20039;-78
2023/04/18 06:17:59;;;;;;;19.63;10.88;;;;;;;7.31;100.00;102259.13;4989588;28;20035;-81
2023/04/18 06:20:25;;;;;;;21.65;11.13;;;;;;;7.60;100.00;102271.50;4959378;28;20458;-78
2023/04/18 06:22:51;;;;;;;19.15;10.23;;;;;;;7.66;100.00;102271.25;4972449;28;20438;-79
2023/04/18 06:25:16;;;;;;;17.80;10.60;;;;;;;8.05;100.00;102278.59;4985716;28;20062;-78
2023/04/18 06:27:42;;;;;;;18.60;10.65;;;;;;;8.12;100.00;102284.66;4947723;28;20146;-79
2023/04/18 06:30:08;;;;;;;20.15;9.73;;;;;;;8.15;100.00;102279.06;4957474;28;20041;-77
2023/04/18 06:32:33;;;;;;;15.43;8.75;;;;;;;8.38;100.00;102279.81;4975997;28;20035;-79
2023/04/18 06:34:59;;;;;;;23.25;10.88;;;;;;;8.39;100.00;102290.66;4963194;28;20126;-79
2023/04/18 06:37:24;;;;;;;16.45;9.93;;;;;;;8.38;100.00;102297.09;4980709;28;20039;-78
2023/04/18 06:39:50;;;;;;;18.42;10.32;;;;;;;8.25;100.00;102296.78;4973227;28;20573;-82
2023/04/18 06:42:15;;;;;;;14.75;8.98;;;;;;;8.20;100.00;102298.84;4980040;28;20512;-79
2023/04/18 06:44:42;;;;;;;16.45;9.35;;;;;;;8.00;100.00;102287.94;4981109;28;20454;-80
2023/04/18 06:47:10;;;;;;;15.13;9.70;;;;;;;7.69;100.00;102292.94;4978478;28;20057;-82
2023/04/18 06:49:36;;;;;;;14.32;9.32;;;;;;;7.73;100.00;102291.81;4953394;28;20130;-80
2023/04/18 06:52:01;;;;;;;17.92;10.50;;;;;;;7.76;100.00;102292.66;4958131;28;20035;-80
2023/04/18 06:54:27;;;;;;;16.92;10.05;;;;;;;7.75;100.00;102291.75;4986764;28;20046;-81
2023/04/18 06:56:52;;;;;;;18.02;10.73;;;;;;;7.84;100.00;102295.94;4977014;28;20042;-78
2023/04/18 06:59:20;;;;;;;16.50;10.15;;;;;;;7.88;100.00;102300.28;4930153;28;20049;-78
2023/04/18 07:01:46;;;;;;;15.45;10.57;;;;;;;8.10;100.00;102287.47;4999681;28;20030;-79
2023/04/18 07:04:11;;;;;;;12.40;7.90;;;;;;;8.17;100.00;102293.50;4948123;28;20027;-78
2023/04/18 07:06:37;;;;;;;15.23;9.77;;;;;;;8.09;100.00;102299.31;4960569;28;20089;-79
2023/04/18 07:09:02;;;;;;;14.27;9.82;;;;;;;8.10;100.00;102302.94;4980279;28;20043;-78
2023/04/18 07:11:28;;;;;;;25.67;10.02;;;;;;;8.28;100.00;102299.38;4974537;28;20118;-77
2023/04/18 07:13:54;;;;;;;14.85;9.57;;;;;;;8.10;100.00;102305.69;4979219;28;20035;-78
2023/04/18 07:16:20;;;;;;;19.50;9.90;;;;;;;8.19;100.00;102302.50;4977783;28;20038;-82
2023/04/18 07:18:46;;;;;;;13.73;9.80;;;;;;;8.23;100.00;102297.78;4971942;28;20039;-78
2023/04/18 07:21:11;;;;;;;15.18;8.88;;;;;;;8.32;100.00;102301.97;4983331;28;20041;-76
2023/04/18 07:23:37;;;;;;;18.75;9.50;;;;;;;8.44;100.00;102306.84;4987012;28;20138;-76
2023/04/18 07:26:04;;;;;;;15.38;8.93;;;;;;;8.83;100.00;102301.34;4997230;28;20041;-76
2023/04/18 07:28:30;;;;;;;14.60;8.73;;;;;;;8.93;100.00;102306.38;5004478;28;20049;-75
2023/04/18 07:30:56;;;;;;;17.42;9.88;;;;;;;8.83;100.00;102305.94;4999774;28;20031;-75
2023/04/18 07:33:22;;;;;;;14.88;9.95;;;;;;;8.66;100.00;102295.84;4969836;28;20047;-77
2023/04/18 07:35:49;;;;;;;14.73;8.05;;;;;;;8.42;100.00;102312.34;4972514;28;20030;-76
2023/04/18 07:38:15;;;;;;;16.45;9.48;;;;;;;8.46;100.00;102315.84;4990446;28;20066;-76
2023/04/18 07:40:40;;;;;;;19.02;10.13;;;;;;;8.74;100.00;102311.81;4983772;28;20121;-76
2023/04/18 07:43:06;;;;;;;13.88;8.63;;;;;;;9.07;100.00;102316.59;4965983;28;20102;-75
2023/04/18 07:45:35;;;;;;;13.57;9.27;;;;;;;9.40;100.00;102314.06;4980820;28;20027;-77
2023/04/18 07:48:01;;;;;;;14.95;9.48;;;;;;;9.26;100.00;102319.31;4983558;28;20050;-77
2023/04/18 07:50:26;;;;;;;12.77;8.70;;;;;;;9.28;100.00;102317.38;4984637;28;20093;-77
2023/04/18 07:52:52;;;;;;;15.07;9.50;;;;;;;9.04;100.00;102319.50;4974914;28;20051;-76
2023/04/18 07:55:17;;;;;;;16.85;9.70;;;;;;;9.02;100.00;102319.59;4985014;28;20037;-78
2023/04/18 07:57:43;;;;;;;16.08;9.82;;;;;;;9.01;100.00;102318.69;4975841;28;20039;-76
2023/04/18 08:00:11;;;;;;;17.05;10.73;;;;;;;8.93;100.00;102315.44;5003933;28;20045;-77
2023/04/18 08:02:36;;;;;;;16.95;10.63;;;;;;;9.09;100.00;102320.16;4988452;28;20059;-77
2023/04/18 08:05:02;;;;;;;14.35;10.00;;;;;;;8.93;100.00;102320.91;4972510;28;20043;-77
2023/04/18 08:07:27;;;;;;;17.27;10.48;;;;;;;9.17;100.00;102321.56;4973847;28;20042;-77
2023/04/18 08:09:52;;;;;;;20.08;11.00;;;;;;;9.09;100.00;102314.72;4998117;28;20443;-76
2023/04/18 08:12:18;;;;;;;19.42;12.00;;;;;;;9.13;100.00;102316.31;4996177;28;20058;-75
2023/04/18 08:14:43;;;;;;;19.42;11.70;;;;;;;9.36;100.00;102309.69;5006682;28;20042;-77
2023/04/18 08:17:09;;;;;;;19.75;12.35;;;;;;;9.44;100.00;102320.25;4982595;28;20042;-79
2023/04/18 08:19:34;;;;;;;17.95;12.45;;;;;;;9.71;100.00;102329.78;4983557;28;20035;-76
2023/04/18 08:22:09;;;;;;;19.58;11.38;;;;;;;10.43;100.00;102313.25;4961487;29;20083;-75
2023/04/18 08:24:37;;;;;;;18.40;11.02;;;;;;;11.53;100.00;102308.75;4989515;28;20121;-78
2023/04/18 08:27:02;;;;;;;15.27;10.88;;;;;;;12.19;100.00;102317.59;4976925;28;20096;-76
2023/04/18 08:29:28;;;;;;;17.30;11.88;;;;;;;12.73;100.00;102321.53;4966403;28;20031;-78
2023/04/18 08:31:53;;;;;;;18.52;11.32;;;;;;;12.73;100.00;102316.03;4992025;28;20045;-80
2023/04/18 08:34:19;;;;;;;18.48;11.13;;;;;;;12.52;100.00;102321.03;4963088;28;20117;-78
2023/04/18 08:36:44;;;;;;;16.05;10.38;;;;;;;13.23;100.00;102318.19;4974864;28;20432;-77
2023/04/18 08:39:10;;;;;;;19.38;12.75;;;;;;;12.89;100.00;102311.31;4988469;28;20391;-77
2023/04/18 08:41:40;;;;;;;16.48;11.93;;;;;;;12.45;100.00;102321.44;4973228;28;20035;-76
2023/04/18 08:44:06;;;;;;;16.77;13.13;;;;;;;12.09;100.00;102324.63;4975163;28;20471;-77
2023/04/18 08:46:36;;;;;;;15.88;11.18;;;;;;;12.81;100.00;102319.16;4925554;28;20062;-78
2023/04/18 08:49:03;;;;;;;18.55;11.52;;;;;;;13.38;100.00;102324.56;4989976;28;20038;-76
2023/04/18 08:51:31;;;;;;;15.20;11.25;;;;;;;13.39;100.00;102314.44;4972509;28;20062;-77
2023/04/18 08:54:03;;;;;;;14.98;10.68;;;;;;;12.80;100.00;102325.63;4971127;28;20504;-78
2023/04/18 08:56:30;;;;;;;15.15;10.57;;;;;;;12.04;100.00;102324.03;4964500;28;20039;-77
2023/04/18 08:58:58;;;;;;;17.35;10.48;;;;;;;11.88;100.00;102316.69;4978156;28;20049;-77
2023/04/18 09:02:00;;;;;;;14.15;10.68;;;;;;;11.92;100.00;102318.31;4962225;28;20026;-77
2023/04/18 09:04:40;;;;;;;15.60;10.60;;;;;;;11.12;100.00;102316.69;4972329;28;20055;-77
2023/04/18 09:07:11;;;;;;;18.88;11.45;;;;;;;11.24;100.00;102318.69;4976199;28;20042;-77
2023/04/18 09:09:51;;;;;;;16.92;11.45;;;;;;;11.13;100.00;102313.81;4984899;28;20057;-77
2023/04/18 09:12:21;;;;;;;17.30;11.20;;;;;;;11.09;100.00;102311.38;4962939;28;20087;-77
2023/04/18 09:14:51;;;;;;;15.85;11.15;;;;;;;10.93;100.00;102314.97;4978594;28;20030;-76
2023/04/18 09:17:35;;;;;;;20.63;10.50;;;;;;;11.50;100.00;102317.16;4983310;28;20046;-81
2023/04/18 09:20:04;;;;;;;17.55;10.55;;;;;;;11.76;100.00;102317.47;4988160;28;20050;-79
2023/04/18 09:22:49;;;;;;;14.75;11.65;;;;;;;12.06;100.00;102316.59;4986819;28;20026;-81
2023/04/18 09:25:33;;;;;;;19.27;10.25;;;;;;;11.94;100.00;102316.34;4977532;28;20035;-80
2023/04/18 09:28:00;;;;;;;12.13;9.57;;;;;;;11.15;100.00;102309.16;5004063;28;20042;-81
2023/04/18 09:30:39;;;;;;;15.77;10.35;;;;;;;11.65;100.00;102322.72;5001323;28;20493;-81
2023/04/18 09:33:08;;;;;;;12.68;9.57;;;;;;;11.16;100.00;102316.38;4972747;29;20448;-81
2023/04/18 09:35:35;;;;;;;35.50;10.60;;;;;;;11.05;100.00;102321.59;4955853;29;20039;-80
2023/04/18 09:38:01;;;;;;;13.35;9.45;;;;;;;11.50;100.00;102319.91;4975541;28;20157;-80
2023/04/18 09:40:27;;;;;;;12.50;8.82;;;;;;;10.70;100.00;102320.88;4993831;28;20030;-82
2023/04/18 09:42:55;;;;;;;16.45;9.75;;;;;;;10.93;100.00;102312.25;5006925;28;20034;-81
2023/04/18 09:45:22;;;;;;;12.55;9.13;;;;;;;10.88;100.00;102314.34;5025349;28;20027;-81
2023/04/18 09:47:48;;;;;;;16.73;9.55;;;;;;;10.88;100.00;102322.59;4991578;28;20031;-80
2023/04/18 09:50:15;;;;;;;15.30;9.40;;;;;;;10.56;100.00;102314.34;4992704;28;20015;-80
2023/04/18 09:52:42;;;;;;;13.95;9.57;;;;;;;10.60;100.00;102326.00;4985811;28;20043;-80
2023/04/18 09:55:14;;;;;;;12.02;9.45;;;;;;;10.31;100.00;102336.66;5010602;28;20030;-81
2023/04/18 09:57:43;;;;;;;14.15;9.90;;;;;;;10.51;100.00;102326.50;5023041;28;20057;-80
2023/04/18 10:00:18;;;;;;;14.32;9.23;;;;;;;10.75;100.00;102322.38;4986999;28;20049;-80
2023/04/18 10:02:47;;;;;;;17.20;9.43;;;;;;;10.87;100.00;102319.94;4988018;28;20062;-81
2023/04/18 10:05:13;;;;;;;13.95;9.77;;;;;;;11.15;100.00;102319.22;5004583;28;20026;-80
2023/04/18 10:07:42;;;;;;;14.77;9.77;;;;;;;11.30;100.00;102320.22;5001730;28;20058;-80
2023/04/18 10:10:08;;;;;;;14.75;7.07;;;;;;;11.62;100.00;102318.28;4984139;28;20039;-80
2023/04/18 10:12:36;;;;;;;14.05;9.82;;;;;;;11.18;100.00;102308.97;4978720;28;20045;-79
2023/04/18 10:15:03;;;;;;;12.82;8.80;;;;;;;11.31;100.00;102322.81;5006912;28;20027;-80
2023/04/18 10:17:40;;;;;;;13.75;8.57;;;;;;;11.40;100.00;102307.72;5006214;28;20038;-80
2023/04/18 10:20:11;;;;;;;11.20;8.43;;;;;;;11.13;100.00;102312.94;4988102;28;20572;-81
2023/04/18 10:22:41;;;;;;;11.93;8.07;;;;;;;11.21;100.00;102314.28;4986006;28;20047;-81
2023/04/18 10:25:07;;;;;;;14.32;7.97;;;;;;;11.12;100.00;102317.56;4975457;28;20046;-82
2023/04/18 10:27:47;;;;;;;11.68;7.50;;;;;;;11.20;100.00;102325.34;4991742;28;20035;-78
2023/04/18 10:30:14;;;;;;;11.75;8.25;;;;;;;11.32;100.00;102310.91;4974570;28;20122;-80
2023/04/18 10:32:39;;;;;;;12.30;8.15;;;;;;;11.12;100.00;102317.56;4989130;28;20761;-78
2023/04/18 10:35:06;;;;;;;12.25;7.65;;;;;;;11.15;100.00;102305.50;5008988;28;20042;-77
2023/04/18 10:37:32;;;;;;;12.30;8.43;;;;;;;11.39;100.00;102319.66;4995323;28;20517;-77
2023/04/18 10:40:01;;;;;;;16.10;11.15;;;;;;;11.19;100.00;102318.09;4992239;28;20039;-77
2023/04/18 10:42:51;;;;;;;13.60;10.05;;;;;;;10.83;100.00;102320.09;4961438;28;20057;-77
2023/04/18 10:45:20;;;;;;;14.50;9.90;;;;;;;10.69;100.00;102313.63;4985045;28;20045;-77
2023/04/18 10:47:46;;;;;;;15.70;10.05;;;;;;;11.04;100.00;102311.63;4944939;28;20046;-77
2023/04/18 10:50:12;;;;;;;15.93;8.27;;;;;;;11.03;100.00;102305.28;4973754;28;20062;-76
2023/04/18 10:52:39;;;;;;;14.77;10.27;;;;;;;11.08;100.00;102307.72;4979762;28;20034;-77
2023/04/18 10:55:29;;;;;;;18.35;11.65;;;;;;;11.09;100.00;102317.72;4961852;28;20081;-77
2023/04/18 10:57:57;;;;;;;17.98;10.70;;;;;;;11.18;100.00;102317.22;4973313;28;20062;-77
2023/04/18 11:00:23;;;;;;;21.92;13.95;;;;;;;11.30;100.00;102311.97;4957845;28;20031;-77
2023/04/18 11:02:55;;;;;;;21.02;13.85;;;;;;;11.10;100.00;102313.13;4968387;28;20109;-77
2023/04/18 11:05:23;;;;;;;23.67;12.70;;;;;;;11.11;100.00;102304.81;4976544;28;20039;-75
2023/04/18 11:07:49;;;;;;;22.52;11.75;;;;;;;11.17;100.00;102315.44;4960642;28;20045;-77
2023/04/18 11:10:24;;;;;;;19.10;12.20;;;;;;;11.50;100.00;102314.41;4957194;28;20481;-77